createdAt,value
2018-05-07T00:04:53.110Z,13.30
2018-05-07T00:09:55.619Z,13.30
2018-05-07T00:14:58.147Z,13.20
2018-05-07T00:20:00.635Z,13.20
2018-05-07T00:25:03.944Z,13.00
2018-05-07T00:30:07.193Z,12.80
2018-05-07T00:35:09.704Z,12.70
2018-05-07T00:40:12.198Z,12.80
2018-05-07T00:45:14.696Z,12.90
2018-05-07T00:50:17.178Z,13.00
2018-05-07T00:55:22.445Z,13.00
2018-05-07T01:00:26.356Z,13.10
2018-05-07T01:05:30.162Z,13.20
2018-05-07T01:10:33.204Z,13.20
2018-05-07T01:15:35.699Z,13.20
2018-05-07T01:20:39.790Z,13.10
2018-05-07T01:25:43.109Z,13.00
2018-05-07T01:30:46.796Z,13.10
2018-05-07T01:35:50.084Z,13.00
2018-05-07T01:40:53.334Z,12.80
2018-05-07T01:45:56.105Z,12.70
2018-05-07T01:50:59.498Z,12.60
2018-05-07T01:56:02.772Z,12.40
2018-05-07T02:01:05.274Z,12.30
2018-05-07T02:06:08.569Z,12.50
2018-05-07T02:11:11.067Z,12.50
2018-05-07T02:16:13.720Z,12.30
2018-05-07T02:21:16.949Z,12.20
2018-05-07T02:26:19.420Z,12.20
2018-05-07T02:31:22.756Z,12.00
2018-05-07T02:36:25.243Z,11.90
2018-05-07T02:41:29.032Z,12.00
2018-05-07T02:46:31.575Z,11.80
2018-05-07T02:51:34.093Z,11.70
2018-05-07T02:56:36.727Z,11.50
2018-05-07T03:01:39.997Z,11.40
2018-05-07T03:06:42.932Z,11.30
2018-05-07T03:11:45.488Z,11.40
2018-05-07T03:16:48.045Z,11.20
2018-05-07T03:21:50.680Z,11.20
2018-05-07T03:26:54.093Z,11.20
2018-05-07T03:31:56.652Z,11.20
2018-05-07T03:36:59.167Z,11.10
2018-05-07T03:42:01.687Z,11.00
2018-05-07T03:47:04.188Z,11.00
2018-05-07T03:52:06.714Z,10.90
2018-05-07T03:57:10.163Z,10.80
2018-05-07T04:02:12.695Z,10.80
2018-05-07T04:07:15.259Z,10.80
2018-05-07T04:12:17.805Z,10.70
2018-05-07T04:17:34.485Z,10.70
2018-05-07T04:22:48.972Z,10.80
2018-05-07T04:27:51.512Z,10.80
2018-05-07T04:32:54.143Z,10.80
2018-05-07T04:37:56.705Z,10.90
2018-05-07T04:42:59.221Z,11.00
2018-05-07T04:48:01.727Z,10.90
2018-05-07T04:53:04.276Z,10.90
2018-05-07T04:58:06.793Z,11.00
2018-05-07T05:03:09.299Z,11.10
2018-05-07T05:08:11.905Z,11.30
2018-05-07T05:13:14.382Z,11.60
2018-05-07T05:18:16.900Z,11.80
2018-05-07T05:23:19.416Z,11.90
2018-05-07T05:28:21.944Z,12.10
2018-05-07T05:33:24.498Z,12.20
2018-05-07T05:38:27.258Z,12.50
2018-05-07T05:43:31.539Z,12.90
2018-05-07T05:48:34.272Z,12.80
2018-05-07T05:53:37.544Z,13.10
2018-05-07T05:58:40.072Z,13.00
2018-05-07T06:03:43.712Z,13.80
2018-05-07T06:08:46.227Z,13.70
2018-05-07T06:13:49.107Z,14.10
2018-05-07T06:18:51.715Z,14.50
2018-05-07T06:23:54.257Z,14.70
2018-05-07T06:28:56.773Z,15.10
2018-05-07T06:34:00.995Z,15.90
2018-05-07T06:39:04.166Z,15.80
2018-05-07T06:44:07.453Z,16.10
2018-05-07T06:49:09.989Z,16.30
2018-05-07T06:54:12.510Z,16.60
2018-05-07T06:59:15.054Z,17.00
2018-05-07T07:04:17.571Z,17.20
2018-05-07T07:09:20.144Z,17.60
2018-05-07T07:14:22.692Z,17.90
2018-05-07T07:19:25.960Z,18.50
2018-05-07T07:24:28.486Z,18.40
2018-05-07T07:29:31.798Z,19.20
2018-05-07T07:34:35.068Z,19.50
2018-05-07T07:39:37.586Z,19.40
2018-05-07T07:44:40.091Z,19.90
2018-05-07T07:49:43.373Z,20.40
2018-05-07T07:54:45.885Z,20.30
2018-05-07T07:59:54.689Z,20.70
2018-05-07T08:04:57.237Z,21.30
2018-05-07T08:10:00.533Z,21.80
2018-05-07T08:15:03.857Z,21.80
2018-05-07T08:20:08.122Z,21.80
2018-05-07T08:25:10.759Z,22.10
2018-05-07T08:30:13.323Z,22.40
2018-05-07T08:35:15.911Z,22.90
2018-05-07T08:40:18.473Z,23.00
2018-05-07T08:45:22.091Z,23.20
2018-05-07T08:50:24.653Z,23.60
2018-05-07T08:55:27.205Z,23.60
2018-05-07T09:00:29.739Z,23.90
2018-05-07T09:05:33.054Z,24.40
2018-05-07T09:10:36.380Z,24.70
2018-05-07T09:15:39.682Z,24.80
2018-05-07T09:20:43.010Z,25.10
2018-05-07T09:25:45.542Z,25.00
2018-05-07T09:30:48.082Z,25.70
2018-05-07T09:35:50.656Z,26.10
2018-05-07T09:40:53.197Z,25.90
2018-05-07T09:45:56.678Z,26.30
2018-05-07T09:50:59.974Z,26.10
2018-05-07T09:56:03.314Z,26.30
2018-05-07T10:01:06.385Z,26.30
2018-05-07T10:06:09.711Z,26.90
2018-05-07T10:11:12.297Z,26.90
2018-05-07T10:16:15.694Z,27.90
2018-05-07T10:21:18.266Z,27.80
2018-05-07T10:26:20.815Z,27.90
2018-05-07T10:31:24.134Z,28.50
2018-05-07T10:36:26.686Z,28.40
2018-05-07T10:41:29.234Z,28.80
2018-05-07T10:46:31.774Z,28.60
2018-05-07T10:51:34.323Z,28.40
2018-05-07T10:56:39.067Z,28.60
2018-05-07T11:01:43.180Z,28.50
2018-05-07T11:06:45.818Z,28.70
2018-05-07T11:11:48.357Z,28.50
2018-05-07T11:16:51.676Z,29.80
2018-05-07T11:21:54.191Z,29.70
2018-05-07T11:26:56.708Z,29.70
2018-05-07T11:31:59.279Z,29.20
2018-05-07T11:37:01.838Z,29.40
2018-05-07T11:42:05.960Z,29.50
2018-05-07T11:47:08.480Z,29.50
2018-05-07T11:57:38.125Z,30.20
2018-05-07T12:02:41.495Z,30.40
2018-05-07T12:07:44.096Z,30.40
2018-05-07T12:12:46.732Z,30.60
2018-05-07T12:17:50.087Z,30.30
2018-05-07T12:22:52.759Z,30.30
2018-05-07T12:27:56.937Z,30.70
2018-05-07T12:33:01.158Z,30.40
2018-05-07T12:38:04.521Z,30.40
2018-05-07T12:43:07.840Z,30.90
2018-05-07T12:48:10.417Z,30.80
2018-05-07T12:53:13.749Z,30.90
2018-05-07T12:58:16.394Z,30.90
2018-05-07T13:03:19.434Z,30.70
2018-05-07T13:08:22.824Z,30.30
2018-05-07T13:13:25.439Z,30.20
2018-05-07T13:18:28.771Z,30.40
2018-05-07T13:23:31.727Z,30.40
2018-05-07T13:28:34.341Z,30.60
2018-05-07T13:33:37.996Z,30.80
2018-05-07T13:38:40.632Z,30.70
2018-05-07T13:43:43.245Z,30.70
2018-05-07T13:48:47.076Z,30.30
2018-05-07T13:53:49.678Z,30.20
2018-05-07T13:58:54.306Z,30.40
2018-05-07T14:03:59.660Z,29.90
2018-05-07T14:09:02.888Z,29.90
2018-05-07T14:14:06.235Z,30.20
2018-05-07T14:19:11.010Z,30.10
2018-05-07T14:24:13.715Z,30.30
2018-05-07T14:29:16.338Z,30.20
2018-05-07T14:34:20.008Z,30.50
2018-05-07T14:39:22.745Z,30.50
2018-05-07T14:44:26.473Z,30.20
2018-05-07T14:49:29.116Z,30.10
2018-05-07T14:54:31.710Z,30.40
2018-05-07T14:59:34.503Z,30.40
2018-05-07T15:04:37.075Z,30.50
2018-05-07T15:09:39.652Z,30.40
2018-05-07T15:14:43.327Z,30.70
2018-05-07T15:19:46.292Z,30.60
2018-05-07T15:24:49.645Z,30.00
2018-05-07T15:29:55.714Z,30.00
2018-05-07T15:35:01.505Z,30.30
2018-05-07T15:40:04.389Z,29.90
2018-05-07T15:45:07.107Z,29.50
2018-05-07T15:50:12.048Z,29.60
2018-05-07T15:55:14.644Z,29.60
2018-05-07T16:00:17.248Z,29.70
2018-05-07T16:05:19.867Z,29.60
2018-05-07T16:10:23.324Z,29.60
2018-05-07T16:15:26.766Z,29.60
2018-05-07T16:20:30.053Z,29.30
2018-05-07T16:25:33.003Z,29.20
2018-05-07T16:30:36.379Z,29.40
2018-05-07T16:35:39.347Z,29.40
2018-05-07T16:40:41.902Z,29.20
2018-05-07T16:45:45.573Z,29.10
2018-05-07T16:50:48.901Z,29.50
2018-05-07T16:55:51.496Z,29.50
2018-05-07T17:00:54.192Z,29.70
2018-05-07T17:05:56.821Z,30.10
2018-05-07T17:11:00.079Z,30.40
2018-05-07T17:16:02.669Z,30.40
2018-05-07T17:21:05.283Z,30.20
2018-05-07T17:26:07.892Z,29.80
2018-05-07T17:31:10.470Z,29.60
2018-05-07T17:36:13.364Z,28.90
2018-05-07T17:41:16.040Z,28.40
2018-05-07T17:46:31.269Z,27.70
2018-05-07T17:51:33.909Z,27.60
2018-05-07T17:56:37.302Z,26.90
2018-05-07T18:01:39.913Z,26.80
2018-05-07T18:06:42.508Z,26.40
2018-05-07T18:11:45.178Z,26.20
2018-05-07T18:16:47.801Z,25.90
2018-05-07T18:21:51.685Z,25.50
2018-05-07T18:26:56.380Z,24.70
2018-05-07T18:31:58.987Z,24.70
2018-05-07T18:37:03.035Z,24.30
2018-05-07T18:42:06.381Z,23.60
2018-05-07T18:47:08.967Z,23.50
2018-05-07T18:52:11.593Z,23.10
2018-05-07T18:57:14.132Z,22.70
2018-05-07T19:02:17.479Z,22.00
2018-05-07T19:07:20.016Z,21.90
2018-05-07T19:12:27.260Z,21.60
2018-05-07T19:17:29.839Z,21.20
2018-05-07T19:22:33.194Z,20.50
2018-05-07T19:27:35.837Z,20.40
2018-05-07T19:32:39.365Z,20.00
2018-05-07T19:37:42.839Z,19.70
2018-05-07T19:42:45.555Z,19.60
2018-05-07T19:47:48.914Z,19.30
2018-05-07T19:52:51.454Z,19.20
2018-05-07T19:57:53.979Z,18.90
2018-05-07T20:02:57.323Z,18.50
2018-05-07T20:08:00.306Z,18.40
2018-05-07T20:13:02.867Z,18.40
2018-05-07T20:18:05.466Z,18.20
2018-05-07T20:23:08.013Z,18.20
2018-05-07T20:28:10.597Z,18.20
2018-05-07T20:33:13.410Z,18.20
2018-05-07T20:38:17.974Z,18.50
2018-05-07T20:43:20.532Z,18.50
2018-05-07T20:48:23.234Z,18.70
2018-05-07T20:53:25.825Z,18.80
2018-05-07T20:58:28.414Z,18.80
2018-05-07T21:03:30.997Z,18.80
2018-05-07T21:08:34.309Z,18.70
2018-05-07T21:13:36.841Z,18.60
2018-05-07T21:18:39.440Z,18.60
2018-05-07T21:23:42.022Z,18.30
2018-05-07T21:28:51.638Z,17.80
2018-05-07T21:33:55.167Z,17.80
2018-05-07T21:38:57.814Z,17.80
2018-05-07T21:44:00.789Z,17.60
2018-05-07T21:49:04.131Z,17.10
2018-05-07T21:54:06.718Z,17.00
2018-05-07T21:59:10.082Z,16.80
2018-05-07T22:04:12.959Z,16.70
2018-05-07T22:09:15.903Z,16.50
2018-05-07T22:14:18.725Z,16.20
2018-05-07T22:19:22.270Z,16.20
2018-05-07T22:24:25.304Z,15.90
2018-05-07T22:29:27.904Z,15.80
2018-05-07T22:34:30.560Z,15.70
2018-05-07T22:39:33.160Z,15.60
2018-05-07T22:44:36.477Z,15.50
2018-05-07T22:49:39.086Z,15.40
2018-05-07T22:54:41.670Z,15.40
2018-05-07T22:59:44.251Z,15.30
2018-05-07T23:04:46.827Z,15.10
2018-05-07T23:09:50.455Z,15.10
2018-05-07T23:14:53.059Z,15.10
2018-05-07T23:19:55.653Z,15.00
2018-05-07T23:35:45.456Z,14.60
2018-05-07T23:40:47.993Z,14.40
2018-05-07T23:45:51.353Z,14.10
2018-05-07T23:50:53.909Z,14.00
2018-05-07T23:55:56.536Z,14.10
